Time;durP1;ratioP1;P1;durP2;ratioP2;P2;SDS_P1;SDS_P2;PMS_P1;PMS_P2;Temp;Humidity;BMP_temperature;BMP_pressure;BME280_temperature;BME280_humidity;BME280_pressure;Samples;Min_cycle;Max_cycle;Signal;HPM_P1;HPM_P2
2022/07/29 00:01:30;;;;;;;10.00;2.50;;;21.20;56.30;;;;;;5056396;28;20476;-76
2022/07/29 00:04:16;;;;;;;7.17;2.27;;;21.20;57.30;;;;;;5057174;28;20504;-76
2022/07/29 00:07:04;;;;;;;8.90;2.70;;;21.10;57.30;;;;;;5057949;28;20489;-76
2022/07/29 00:09:49;;;;;;;6.10;2.87;;;21.10;54.50;;;;;;5058770;28;20448;-76
2022/07/29 00:12:35;;;;;;;2.60;1.90;;;21.10;54.50;;;;;;5049125;28;20572;-76
2022/07/29 00:15:21;;;;;;;6.30;3.07;;;21.00;55.80;;;;;;5060211;28;20818;-76
2022/07/29 00:18:06;;;;;;;4.53;2.77;;;21.00;56.60;;;;;;5061164;28;20444;-76
2022/07/29 00:20:52;;;;;;;17.00;3.47;;;20.90;54.70;;;;;;5054328;28;20467;-76
2022/07/29 00:23:39;;;;;;;3.20;2.20;;;20.70;55.30;;;;;;5058170;28;20528;-76
2022/07/29 00:26:27;;;;;;;6.20;2.30;;;20.60;55.20;;;;;;5060047;28;20455;-76
2022/07/29 00:29:13;;;;;;;3.90;2.70;;;20.50;57.90;;;;;;5056272;28;20805;-76
2022/07/29 00:31:58;;;;;;;5.73;2.50;;;20.30;57.30;;;;;;5050883;28;20439;-76
2022/07/29 00:37:47;;;;;;;3.90;2.53;;;20.30;59.00;;;;;;5057593;28;20490;-76
2022/07/29 00:40:34;;;;;;;12.53;2.70;;;20.20;58.40;;;;;;5060654;28;20471;-76
2022/07/29 00:43:20;;;;;;;4.47;2.43;;;20.20;58.80;;;;;;5049522;28;20597;-76
2022/07/29 00:46:06;;;;;;;6.70;2.63;;;20.10;57.10;;;;;;5052981;28;20439;-76
2022/07/29 00:48:52;;;;;;;17.17;2.37;;;20.10;58.20;;;;;;5051516;28;20935;-76
2022/07/29 00:51:38;;;;;;;4.70;2.80;;;20.00;59.50;;;;;;5051341;28;20529;-76
2022/07/29 00:54:24;;;;;;;5.70;2.83;;;20.00;59.50;;;;;;5059932;28;20485;-76
2022/07/29 00:57:12;;;;;;;3.13;1.93;;;19.90;59.90;;;;;;5058109;28;20589;-76
2022/07/29 00:59:58;;;;;;;8.00;2.93;;;19.80;59.90;;;;;;5055563;28;20602;-76
2022/07/29 01:02:44;;;;;;;3.83;2.47;;;19.70;60.20;;;;;;5048765;28;20463;-76
2022/07/29 01:05:31;;;;;;;8.53;2.73;;;19.70;60.50;;;;;;5055648;28;20830;-76
2022/07/29 01:08:17;;;;;;;4.93;2.73;;;19.80;60.60;;;;;;5054993;28;20788;-76
2022/07/29 01:11:03;;;;;;;3.57;2.53;;;19.80;60.10;;;;;;5051684;28;20453;-76
2022/07/29 01:13:51;;;;;;;5.90;2.57;;;19.80;61.00;;;;;;5056367;28;20462;-76
2022/07/29 01:16:43;;;;;;;3.83;2.80;;;19.90;60.20;;;;;;5056440;28;20451;-76
2022/07/29 01:20:01;;;;;;;3.97;2.40;;;19.90;59.90;;;;;;5059697;28;20524;-76
2022/07/29 01:23:09;;;;;;;4.27;2.60;;;19.90;61.10;;;;;;5052313;28;20951;-76
2022/07/29 01:26:26;;;;;;;4.47;2.73;;;19.90;61.10;;;;;;5057291;28;21149;-76
2022/07/29 01:29:23;;;;;;;5.70;2.43;;;19.90;61.40;;;;;;5055315;28;20801;-75
2022/07/29 01:32:13;;;;;;;7.40;2.60;;;19.90;62.00;;;;;;5051872;28;20952;-76
2022/07/29 01:35:03;;;;;;;5.57;2.60;;;19.80;61.80;;;;;;5056750;28;20462;-76
2022/07/29 01:37:56;;;;;;;3.00;2.53;;;19.70;62.10;;;;;;5053794;28;20446;-76
2022/07/29 01:40:46;;;;;;;3.83;2.40;;;19.70;62.20;;;;;;5051200;28;20466;-76
2022/07/29 01:43:37;;;;;;;4.97;2.70;;;19.50;63.10;;;;;;5055437;28;20479;-76
2022/07/29 01:46:29;;;;;;;6.90;2.43;;;19.50;63.30;;;;;;5052317;28;20529;-76
2022/07/29 01:49:18;;;;;;;7.07;2.67;;;19.50;63.00;;;;;;5055653;28;20451;-76
2022/07/29 01:52:09;;;;;;;3.90;2.90;;;19.40;63.50;;;;;;5046981;28;20448;-76
2022/07/29 01:54:59;;;;;;;4.47;2.90;;;19.30;64.30;;;;;;5056020;28;20453;-76
2022/07/29 01:57:48;;;;;;;6.67;3.50;;;19.20;64.30;;;;;;5060522;28;20439;-76
2022/07/29 02:00:35;;;;;;;5.87;3.23;;;19.30;64.30;;;;;;5051497;28;20463;-76
2022/07/29 02:03:24;;;;;;;7.90;3.10;;;19.30;65.90;;;;;;5056776;28;20548;-76
2022/07/29 02:06:12;;;;;;;4.17;2.70;;;19.30;65.50;;;;;;5061688;28;20903;-76
2022/07/29 02:09:00;;;;;;;6.53;2.77;;;19.20;65.40;;;;;;5055664;28;20871;-76
2022/07/29 02:11:50;;;;;;;9.57;3.00;;;19.10;64.90;;;;;;5050850;28;20443;-75
2022/07/29 02:14:40;;;;;;;6.10;3.00;;;19.10;64.70;;;;;;5058694;28;20502;-76
2022/07/29 02:17:29;;;;;;;4.37;2.90;;;19.00;65.50;;;;;;5053380;28;20442;-76
2022/07/29 02:20:17;;;;;;;4.27;2.60;;;19.10;66.70;;;;;;5047159;28;20455;-76
2022/07/29 02:23:04;;;;;;;6.60;3.43;;;19.00;66.30;;;;;;5058225;28;20548;-76
2022/07/29 02:25:51;;;;;;;4.73;3.00;;;18.90;65.80;;;;;;5050575;28;20506;-76
2022/07/29 02:28:37;;;;;;;6.20;2.80;;;19.00;66.20;;;;;;5061072;28;22166;-76
2022/07/29 02:31:26;;;;;;;4.20;2.77;;;18.90;66.50;;;;;;5045570;28;20439;-76
2022/07/29 02:34:12;;;;;;;4.60;3.33;;;18.80;66.70;;;;;;5057233;28;20839;-76
2022/07/29 02:37:00;;;;;;;5.47;2.77;;;18.70;66.70;;;;;;5059923;28;20462;-76
2022/07/29 02:39:48;;;;;;;7.70;3.13;;;18.70;67.50;;;;;;5053720;28;20588;-76
2022/07/29 02:42:36;;;;;;;5.80;3.00;;;18.60;68.10;;;;;;5049682;28;20602;-76
2022/07/29 02:45:23;;;;;;;5.20;2.87;;;18.50;67.80;;;;;;5053773;28;20459;-76
2022/07/29 02:48:14;;;;;;;5.03;2.80;;;18.40;69.20;;;;;;5052224;28;20956;-76
2022/07/29 02:51:08;;;;;;;7.50;3.07;;;18.40;68.80;;;;;;5047773;28;20986;-76
2022/07/29 02:53:58;;;;;;;5.40;3.60;;;18.40;69.50;;;;;;5053854;28;20458;-76
2022/07/29 02:56:46;;;;;;;4.37;3.23;;;18.40;70.40;;;;;;5058483;28;20916;-76
2022/07/29 02:59:37;;;;;;;10.40;3.03;;;18.30;70.30;;;;;;5047048;28;20492;-76
2022/07/29 03:02:23;;;;;;;4.00;2.93;;;18.30;71.10;;;;;;5054326;28;20893;-76
2022/07/29 03:05:12;;;;;;;8.13;3.03;;;18.20;71.10;;;;;;5055818;28;20442;-76
2022/07/29 03:08:01;;;;;;;4.60;3.47;;;18.20;71.00;;;;;;5052540;28;20713;-76
2022/07/29 03:10:49;;;;;;;7.37;3.43;;;18.20;71.70;;;;;;5045425;28;20668;-76
2022/07/29 03:13:35;;;;;;;6.30;3.07;;;18.10;72.00;;;;;;5046674;28;20474;-76
2022/07/29 03:16:23;;;;;;;5.20;3.20;;;18.10;72.30;;;;;;5049332;28;20446;-76
2022/07/29 03:19:09;;;;;;;5.40;2.77;;;18.00;73.00;;;;;;5048230;28;20459;-76
2022/07/29 03:21:57;;;;;;;9.77;3.30;;;18.20;72.60;;;;;;5051121;28;20522;-76
2022/07/29 03:24:42;;;;;;;10.27;3.07;;;18.20;72.70;;;;;;5048086;28;20587;-76
2022/07/29 03:27:30;;;;;;;7.80;2.80;;;18.20;72.80;;;;;;5054485;28;20462;-76
2022/07/29 03:30:16;;;;;;;12.90;3.10;;;18.10;73.10;;;;;;5047192;28;20603;-76
2022/07/29 03:33:02;;;;;;;6.40;3.47;;;18.20;72.80;;;;;;5054209;28;20458;-76
2022/07/29 03:35:47;;;;;;;5.03;2.50;;;18.20;72.10;;;;;;5053862;28;20451;-76
2022/07/29 03:38:35;;;;;;;6.70;3.30;;;18.20;72.80;;;;;;5046910;28;20455;-76
2022/07/29 03:41:25;;;;;;;4.00;2.70;;;18.40;72.60;;;;;;5054322;28;20843;-76
2022/07/29 03:44:13;;;;;;;5.90;3.37;;;18.50;72.70;;;;;;5055419;28;21030;-76
2022/07/29 03:47:02;;;;;;;5.00;3.10;;;18.40;72.40;;;;;;5057885;28;20463;-76
2022/07/29 03:49:51;;;;;;;5.97;2.83;;;18.40;71.90;;;;;;5050453;28;21022;-76
2022/07/29 03:52:37;;;;;;;6.77;3.80;;;18.50;71.80;;;;;;5060807;28;20454;-76
2022/07/29 03:55:23;;;;;;;8.93;3.30;;;18.50;72.10;;;;;;5055620;28;20451;-76
2022/07/29 03:58:09;;;;;;;7.23;2.93;;;18.70;72.10;;;;;;5053402;28;21071;-76
2022/07/29 04:00:57;;;;;;;4.27;3.07;;;18.70;71.90;;;;;;5051489;28;21134;-76
2022/07/29 04:03:45;;;;;;;4.80;2.90;;;18.70;71.40;;;;;;5059056;28;20485;-76
2022/07/29 04:06:38;;;;;;;7.27;3.03;;;18.60;71.30;;;;;;5047710;28;20972;-76
2022/07/29 04:09:23;;;;;;;4.07;3.47;;;18.50;71.80;;;;;;5051195;28;21006;-76
2022/07/29 04:12:10;;;;;;;7.80;3.20;;;18.40;72.40;;;;;;5063314;28;20811;-76
2022/07/29 04:14:56;;;;;;;8.40;3.27;;;18.30;71.50;;;;;;5059676;28;20432;-76
2022/07/29 04:17:43;;;;;;;7.77;2.90;;;18.30;72.20;;;;;;5061472;28;20819;-76
2022/07/29 04:20:28;;;;;;;6.30;3.00;;;18.20;73.10;;;;;;5054775;28;20852;-76
2022/07/29 04:23:14;;;;;;;5.60;3.00;;;18.20;72.40;;;;;;5059976;28;20524;-76
2022/07/29 04:26:01;;;;;;;20.60;3.50;;;18.10;72.60;;;;;;5055244;28;21250;-76
2022/07/29 04:28:47;;;;;;;6.23;4.40;;;18.20;72.40;;;;;;5048444;28;20494;-76
2022/07/29 04:31:32;;;;;;;4.70;3.30;;;18.20;72.70;;;;;;5049082;28;20435;-76
2022/07/29 04:34:19;;;;;;;7.70;3.27;;;18.10;73.00;;;;;;5055357;28;20516;-76
2022/07/29 04:37:05;;;;;;;5.77;3.30;;;18.10;73.00;;;;;;5057585;28;21087;-76
2022/07/29 04:39:51;;;;;;;7.90;3.63;;;18.10;73.40;;;;;;5055581;28;20974;-76
2022/07/29 04:45:07;;;;;;;7.73;3.70;;;18.00;73.00;;;;;;5018168;28;20465;-71
2022/07/29 04:47:53;;;;;;;4.63;3.10;;;18.10;73.00;;;;;;5011620;28;20445;-71
2022/07/29 04:50:41;;;;;;;4.90;2.97;;;18.30;73.60;;;;;;5018783;28;20448;-72
2022/07/29 04:53:27;;;;;;;3.40;2.50;;;18.40;74.80;;;;;;5014220;28;20820;-73
2022/07/29 04:56:13;;;;;;;9.93;3.10;;;18.40;76.40;;;;;;5021474;28;20450;-71
2022/07/29 04:58:59;;;;;;;4.70;3.13;;;18.40;75.40;;;;;;5013958;28;20447;-71
2022/07/29 05:01:44;;;;;;;7.30;3.50;;;18.50;75.10;;;;;;5019459;28;20473;-71
2022/07/29 05:04:30;;;;;;;7.60;4.00;;;18.60;75.40;;;;;;5018859;28;20580;-71
2022/07/29 05:07:17;;;;;;;7.70;3.13;;;18.60;75.20;;;;;;5006506;28;20445;-72
2022/07/29 05:10:04;;;;;;;8.73;3.17;;;18.70;74.90;;;;;;5020713;28;20948;-71
2022/07/29 05:12:50;;;;;;;6.80;3.40;;;18.70;74.30;;;;;;5016094;28;20441;-71
2022/07/29 05:15:38;;;;;;;7.50;3.07;;;18.80;73.60;;;;;;5015117;28;20481;-71
2022/07/29 05:18:23;;;;;;;4.17;2.87;;;18.90;73.70;;;;;;5008470;28;20449;-71
2022/07/29 05:21:09;;;;;;;8.43;3.00;;;18.90;73.30;;;;;;5017767;28;20810;-71
2022/07/29 05:23:56;;;;;;;5.80;2.70;;;19.00;72.30;;;;;;5018885;28;20453;-72
2022/07/29 05:26:41;;;;;;;4.93;3.67;;;19.00;72.40;;;;;;5011711;28;20512;-72
2022/07/29 05:29:27;;;;;;;5.27;3.10;;;19.20;73.90;;;;;;5014505;28;20536;-72
2022/07/29 05:32:13;;;;;;;9.30;3.80;;;19.30;74.00;;;;;;5019312;28;20877;-72
2022/07/29 05:34:59;;;;;;;4.93;3.60;;;19.40;73.50;;;;;;5021562;28;20516;-72
2022/07/29 05:37:44;;;;;;;5.07;2.90;;;19.60;72.80;;;;;;5014311;28;21098;-71
2022/07/29 05:40:32;;;;;;;3.57;3.07;;;19.60;73.30;;;;;;5016639;28;20441;-71
2022/07/29 05:43:17;;;;;;;4.37;3.23;;;19.70;74.00;;;;;;5014670;28;20473;-72
2022/07/29 05:46:03;;;;;;;4.67;3.10;;;19.70;71.60;;;;;;5015998;28;20976;-72
2022/07/29 05:48:48;;;;;;;4.20;2.93;;;19.80;70.70;;;;;;5013961;28;21018;-71
2022/07/29 05:51:34;;;;;;;5.90;3.50;;;19.80;71.70;;;;;;5011022;28;20562;-71
2022/07/29 05:54:20;;;;;;;5.70;3.13;;;19.90;71.10;;;;;;5012366;28;20481;-72
2022/07/29 05:57:07;;;;;;;8.07;3.50;;;20.00;72.20;;;;;;5008051;28;20438;-72
2022/07/29 05:59:53;;;;;;;4.60;3.43;;;20.10;72.80;;;;;;5016210;28;20974;-71
2022/07/29 06:02:39;;;;;;;4.20;3.10;;;20.20;72.20;;;;;;5012644;28;20469;-71
2022/07/29 06:05:25;;;;;;;5.63;2.87;;;20.40;72.50;;;;;;5009125;28;20450;-71
2022/07/29 06:08:10;;;;;;;4.03;2.90;;;20.50;70.80;;;;;;5009765;28;20584;-71
2022/07/29 06:10:56;;;;;;;5.53;2.90;;;20.60;71.60;;;;;;5012815;28;20598;-73
2022/07/29 06:13:43;;;;;;;9.50;3.60;;;20.70;68.20;;;;;;5010854;28;20814;-71
2022/07/29 06:16:28;;;;;;;10.50;3.00;;;20.80;67.20;;;;;;5008522;28;20446;-72
2022/07/29 06:19:14;;;;;;;6.60;3.63;;;21.00;68.10;;;;;;5015424;28;20516;-71
2022/07/29 06:21:59;;;;;;;4.37;2.87;;;21.20;67.10;;;;;;5011829;28;20927;-71
2022/07/29 06:24:45;;;;;;;6.60;3.53;;;21.20;65.90;;;;;;5012356;28;20851;-71
2022/07/29 06:27:30;;;;;;;7.37;3.23;;;21.30;65.40;;;;;;5005650;28;20457;-73
2022/07/29 06:30:18;;;;;;;5.50;3.07;;;21.50;64.00;;;;;;5012769;28;20511;-71
2022/07/29 06:33:04;;;;;;;6.53;3.20;;;21.60;64.60;;;;;;5014287;28;20464;-71
2022/07/29 06:35:49;;;;;;;7.60;3.23;;;21.60;61.20;;;;;;5013493;28;20449;-71
2022/07/29 06:38:35;;;;;;;6.30;3.10;;;21.80;58.80;;;;;;5010644;28;20931;-71
2022/07/29 06:41:22;;;;;;;6.30;2.73;;;21.90;61.00;;;;;;5015891;28;21107;-71
2022/07/29 06:44:07;;;;;;;6.13;2.70;;;22.10;59.10;;;;;;5012098;28;20546;-71
2022/07/29 06:46:54;;;;;;;4.03;3.00;;;22.20;61.30;;;;;;5008742;28;20823;-72
2022/07/29 06:49:40;;;;;;;7.93;3.63;;;22.30;58.30;;;;;;5009441;28;20437;-71
2022/07/29 06:52:25;;;;;;;14.37;3.00;;;22.40;57.90;;;;;;5013772;28;20449;-71
2022/07/29 06:55:11;;;;;;;7.63;3.33;;;22.50;60.60;;;;;;5011282;28;20445;-72
2022/07/29 06:57:56;;;;;;;5.97;3.27;;;22.70;59.70;;;;;;5012423;28;20456;-70
2022/07/29 07:00:42;;;;;;;5.90;3.70;;;22.70;54.60;;;;;;5015642;28;20464;-71
2022/07/29 07:03:29;;;;;;;5.53;3.40;;;22.80;57.40;;;;;;5020900;28;20891;-72
2022/07/29 07:06:15;;;;;;;6.50;2.60;;;22.80;58.30;;;;;;5006200;28;21231;-71
2022/07/29 07:09:00;;;;;;;6.20;3.30;;;22.90;58.10;;;;;;5023670;28;20444;-71
2022/07/29 07:11:46;;;;;;;5.00;3.00;;;22.90;60.10;;;;;;5022590;28;20447;-71
2022/07/29 07:14:32;;;;;;;9.00;3.60;;;23.00;56.50;;;;;;5011406;28;20465;-71
2022/07/29 07:17:17;;;;;;;4.90;2.70;;;23.00;53.00;;;;;;5012557;28;20572;-71
2022/07/29 07:20:05;;;;;;;5.70;3.77;;;23.10;55.60;;;;;;5015694;28;20461;-71
2022/07/29 07:22:51;;;;;;;4.93;3.00;;;23.10;57.60;;;;;;5017484;28;20505;-71
2022/07/29 07:25:37;;;;;;;14.17;3.63;;;23.20;56.70;;;;;;5009383;28;20500;-71
2022/07/29 07:28:23;;;;;;;14.10;3.50;;;23.30;57.90;;;;;;5015962;28;20465;-72
2022/07/29 07:31:09;;;;;;;4.57;3.27;;;23.40;58.40;;;;;;5017557;28;20638;-73
2022/07/29 07:33:54;;;;;;;6.20;3.70;;;23.50;58.40;;;;;;5015818;28;20485;-72
2022/07/29 07:36:41;;;;;;;8.47;4.17;;;23.60;59.50;;;;;;5007747;28;20520;-72
2022/07/29 07:39:27;;;;;;;6.40;3.70;;;23.70;56.80;;;;;;5016293;28;20791;-71
2022/07/29 07:42:13;;;;;;;6.63;3.20;;;23.70;58.50;;;;;;5015245;28;20469;-72
2022/07/29 07:44:59;;;;;;;7.17;3.60;;;23.70;58.60;;;;;;5013804;28;20480;-71
2022/07/29 07:47:45;;;;;;;4.60;3.40;;;23.60;57.60;;;;;;5017092;28;20862;-71
2022/07/29 07:50:30;;;;;;;5.90;3.30;;;23.70;57.90;;;;;;5013650;28;20446;-71
2022/07/29 07:53:17;;;;;;;6.77;4.67;;;23.70;57.30;;;;;;5010187;28;20500;-71
2022/07/29 07:56:04;;;;;;;5.50;3.97;;;23.80;56.90;;;;;;5011504;28;20461;-71
2022/07/29 07:58:49;;;;;;;5.23;3.10;;;23.90;57.50;;;;;;5014708;28;20453;-71
2022/07/29 08:01:35;;;;;;;5.27;3.37;;;24.10;58.30;;;;;;5027359;28;20448;-71
2022/07/29 08:04:20;;;;;;;5.93;4.10;;;24.10;57.70;;;;;;5021024;28;20619;-71
2022/07/29 08:07:06;;;;;;;6.90;3.87;;;24.10;57.70;;;;;;5022081;28;20808;-71
2022/07/29 08:09:53;;;;;;;6.80;3.43;;;24.10;58.40;;;;;;5016023;28;20499;-71
2022/07/29 08:12:39;;;;;;;5.37;3.97;;;24.00;58.70;;;;;;5024346;28;20445;-72
2022/07/29 08:15:24;;;;;;;6.73;3.20;;;24.00;58.70;;;;;;5013797;28;20807;-71
2022/07/29 08:18:10;;;;;;;6.80;4.10;;;24.00;57.90;;;;;;5018572;28;20495;-71
2022/07/29 08:20:56;;;;;;;5.50;4.23;;;24.00;60.00;;;;;;5023137;28;20584;-71
2022/07/29 08:23:45;;;;;;;8.13;4.07;;;24.00;59.00;;;;;;5015308;28;20526;-71
2022/07/29 08:26:32;;;;;;;5.60;3.47;;;24.10;60.10;;;;;;5015089;28;20445;-72
2022/07/29 08:29:18;;;;;;;7.40;4.27;;;24.10;58.30;;;;;;5017281;28;20464;-71
2022/07/29 08:32:05;;;;;;;7.47;4.50;;;24.10;60.40;;;;;;5022123;28;20433;-71
2022/07/29 08:34:51;;;;;;;10.23;4.30;;;24.10;60.10;;;;;;5014713;28;20543;-73
2022/07/29 08:37:36;;;;;;;8.50;3.87;;;24.00;61.30;;;;;;5024855;28;20603;-71
2022/07/29 08:40:23;;;;;;;8.63;4.30;;;23.90;62.90;;;;;;5017421;28;20976;-72
2022/07/29 08:43:10;;;;;;;10.67;4.70;;;23.90;63.20;;;;;;5023736;28;21140;-71
2022/07/29 08:45:56;;;;;;;7.20;4.20;;;23.90;63.90;;;;;;5012349;28;20444;-72
2022/07/29 08:48:42;;;;;;;8.53;5.13;;;23.90;64.80;;;;;;5022109;28;20583;-71
2022/07/29 08:51:28;;;;;;;14.80;4.63;;;24.00;64.20;;;;;;5021192;28;21004;-72
2022/07/29 08:54:19;;;;;;;5.80;4.73;;;24.10;62.30;;;;;;5017838;28;20459;-71
2022/07/29 08:57:05;;;;;;;10.07;4.20;;;24.10;61.20;;;;;;5024508;28;20978;-71
2022/07/29 08:59:55;;;;;;;7.00;4.67;;;24.30;61.90;;;;;;5024001;28;20814;-71
2022/07/29 09:02:45;;;;;;;7.73;4.60;;;24.50;61.40;;;;;;5021940;28;20929;-71
2022/07/29 09:05:32;;;;;;;9.13;4.53;;;24.60;61.70;;;;;;5017931;28;20453;-71
2022/07/29 09:08:18;;;;;;;5.10;4.43;;;24.70;62.10;;;;;;5024987;28;20595;-71
2022/07/29 09:11:04;;;;;;;5.03;4.40;;;24.80;60.60;;;;;;5010622;28;20441;-71
2022/07/29 09:13:49;;;;;;;6.73;4.87;;;24.80;59.80;;;;;;5017395;28;20536;-71
2022/07/29 09:16:52;;;;;;;19.30;5.03;;;24.90;59.70;;;;;;5019817;28;20563;-71
2022/07/29 09:19:38;;;;;;;5.47;4.57;;;25.00;59.40;;;;;;5023640;28;20705;-71
2022/07/29 09:22:32;;;;;;;11.20;4.83;;;25.10;60.40;;;;;;5019490;28;20448;-72
2022/07/29 09:25:33;;;;;;;7.03;4.50;;;25.00;58.60;;;;;;5012627;28;20492;-72
2022/07/29 09:28:19;;;;;;;9.67;4.80;;;24.90;58.50;;;;;;5013492;28;20820;-72
2022/07/29 09:31:06;;;;;;;16.27;5.13;;;24.90;60.00;;;;;;5021490;28;20799;-71
2022/07/29 09:33:55;;;;;;;7.30;5.23;;;25.00;59.40;;;;;;5016261;28;20507;-71
2022/07/29 09:36:42;;;;;;;8.93;4.90;;;25.00;58.60;;;;;;5020273;28;20849;-72
2022/07/29 09:39:30;;;;;;;13.10;6.03;;;25.10;60.60;;;;;;5020987;28;20473;-71
2022/07/29 09:42:28;;;;;;;9.97;5.23;;;25.20;60.30;;;;;;5026118;28;20444;-71
2022/07/29 09:45:27;;;;;;;11.50;4.90;;;25.40;60.20;;;;;;5016476;28;20437;-70
2022/07/29 09:48:18;;;;;;;17.63;6.27;;;25.50;56.90;;;;;;5014548;28;20587;-70
2022/07/29 09:51:06;;;;;;;5.93;4.90;;;25.50;57.30;;;;;;5024522;28;20454;-70
2022/07/29 09:53:51;;;;;;;7.90;4.73;;;25.70;55.10;;;;;;5013448;28;20543;-71
2022/07/29 09:56:42;;;;;;;6.90;4.97;;;25.60;53.30;;;;;;5022228;28;20448;-70
2022/07/29 09:59:28;;;;;;;7.67;4.90;;;25.80;53.90;;;;;;5014097;28;20453;-70
2022/07/29 10:02:14;;;;;;;5.57;4.47;;;25.80;52.60;;;;;;5026065;28;20532;-70
2022/07/29 10:05:00;;;;;;;12.17;5.57;;;25.70;53.50;;;;;;5016463;28;20716;-70
2022/07/29 10:07:48;;;;;;;12.23;6.10;;;25.50;52.60;;;;;;5019520;28;20488;-70
2022/07/29 10:10:37;;;;;;;6.67;5.10;;;25.50;56.30;;;;;;5013165;28;20553;-71
2022/07/29 10:13:22;;;;;;;8.60;5.53;;;25.60;59.10;;;;;;5009855;28;20539;-70
2022/07/29 10:16:09;;;;;;;5.07;4.57;;;25.80;55.50;;;;;;5021121;28;20499;-70
2022/07/29 10:18:54;;;;;;;7.07;6.37;;;26.00;54.20;;;;;;5015109;28;21082;-70
2022/07/29 10:21:43;;;;;;;8.90;5.97;;;26.10;50.40;;;;;;5013964;28;20946;-70
2022/07/29 10:24:31;;;;;;;9.10;5.43;;;26.00;52.90;;;;;;5002583;28;20476;-70
2022/07/29 10:27:17;;;;;;;8.60;6.37;;;26.10;52.00;;;;;;5018821;28;20811;-71
2022/07/29 10:30:04;;;;;;;13.03;5.80;;;26.30;50.90;;;;;;5021183;28;20445;-71
2022/07/29 10:33:28;;;;;;;8.40;5.53;;;26.40;49.60;;;;;;5002072;28;20465;-72
2022/07/29 10:36:28;;;;;;;10.93;5.97;;;26.60;49.10;;;;;;5016318;28;20429;-71
2022/07/29 10:39:26;;;;;;;7.77;5.00;;;26.60;47.90;;;;;;5014428;28;20425;-72
2022/07/29 10:42:20;;;;;;;6.93;5.17;;;26.80;49.00;;;;;;5014998;28;20509;-71
2022/07/29 10:45:07;;;;;;;6.27;5.67;;;26.80;45.60;;;;;;5066568;22;20490;-75
2022/07/29 10:48:04;;;;;;;6.30;5.03;;;26.90;44.90;;;;;;5062583;28;20426;-75
2022/07/29 10:50:58;;;;;;;8.30;5.63;;;27.10;45.80;;;;;;5070900;28;20442;-75
2022/07/29 10:53:49;;;;;;;6.10;5.50;;;27.10;46.60;;;;;;5049877;28;20474;-75
2022/07/29 10:56:35;;;;;;;7.50;5.60;;;27.10;46.60;;;;;;5070685;28;20504;-75
2022/07/29 10:59:26;;;;;;;6.67;5.97;;;27.10;44.10;;;;;;5054844;28;20434;-75
2022/07/29 11:02:47;;;;;;;7.80;5.47;;;27.10;43.30;;;;;;5062818;28;20621;-74
2022/07/29 11:05:54;;;;;;;8.90;5.70;;;27.10;43.90;;;;;;5059807;28;20415;-75
2022/07/29 11:08:39;;;;;;;7.30;5.97;;;27.30;44.40;;;;;;5060232;28;20427;-75
2022/07/29 11:11:36;;;;;;;5.50;4.90;;;27.40;42.70;;;;;;5063202;28;20422;-75
2022/07/29 11:14:56;;;;;;;7.80;5.90;;;27.40;42.90;;;;;;5059356;28;20451;-75
2022/07/29 11:18:06;;;;;;;7.90;5.80;;;27.50;40.10;;;;;;5064760;28;20438;-75
2022/07/29 11:20:53;;;;;;;8.50;5.63;;;27.40;42.40;;;;;;5054071;28;20494;-75
2022/07/29 11:23:42;;;;;;;11.10;5.13;;;27.50;41.60;;;;;;5052897;28;21126;-75
2022/07/29 11:26:28;;;;;;;7.03;5.00;;;27.50;42.40;;;;;;5063304;28;20559;-74
2022/07/29 11:29:21;;;;;;;7.80;6.10;;;27.60;42.50;;;;;;5065714;28;20421;-75
2022/07/29 11:32:14;;;;;;;14.23;5.53;;;27.70;38.50;;;;;;5052462;28;20968;-75
2022/07/29 11:35:18;;;;;;;8.77;5.27;;;27.80;38.90;;;;;;5062830;28;20482;-75
2022/07/29 11:38:25;;;;;;;11.23;6.50;;;27.90;40.10;;;;;;5068747;28;20435;-75
2022/07/29 11:41:29;;;;;;;7.80;5.20;;;28.00;39.20;;;;;;5060582;28;20427;-75
2022/07/29 11:44:15;;;;;;;9.57;6.33;;;28.10;37.90;;;;;;5059640;28;20532;-74
2022/07/29 11:47:01;;;;;;;8.77;5.80;;;28.20;38.80;;;;;;5070401;28;20939;-75
2022/07/29 11:49:49;;;;;;;11.87;5.57;;;28.20;40.00;;;;;;5070616;28;20430;-75
2022/07/29 11:52:37;;;;;;;8.93;6.60;;;28.30;38.70;;;;;;5047611;28;20446;-76
2022/07/29 11:55:25;;;;;;;14.50;5.63;;;28.30;37.20;;;;;;5069153;28;20561;-75
2022/07/29 11:58:10;;;;;;;7.27;6.00;;;28.40;38.50;;;;;;5065389;28;20447;-75
2022/07/29 12:00:57;;;;;;;8.43;5.60;;;28.40;38.80;;;;;;5053713;28;20446;-76
2022/07/29 12:03:43;;;;;;;27.53;6.10;;;28.50;38.90;;;;;;5054971;28;20960;-76
2022/07/29 12:06:30;;;;;;;8.77;6.10;;;28.50;37.30;;;;;;5061130;28;20441;-76
2022/07/29 12:09:17;;;;;;;10.40;6.57;;;28.50;37.00;;;;;;5059308;28;20436;-76
2022/07/29 12:12:03;;;;;;;7.90;6.67;;;28.50;36.40;;;;;;5058715;28;20927;-76
2022/07/29 12:14:49;;;;;;;12.40;6.77;;;28.50;36.70;;;;;;5060196;28;20438;-76
2022/07/29 12:17:37;;;;;;;10.00;6.30;;;28.50;37.40;;;;;;5066436;28;20947;-76
2022/07/29 12:20:27;;;;;;;14.40;6.73;;;28.70;37.00;;;;;;5051996;28;20843;-76
2022/07/29 12:23:16;;;;;;;7.33;5.37;;;28.70;36.20;;;;;;5051912;28;20484;-76
2022/07/29 12:26:04;;;;;;;10.60;6.37;;;28.80;37.60;;;;;;5056624;28;20450;-76
2022/07/29 12:28:50;;;;;;;10.30;6.40;;;28.90;35.70;;;;;;5049706;28;20531;-76
2022/07/29 12:31:36;;;;;;;7.80;5.80;;;29.10;34.80;;;;;;5047252;28;20440;-76
2022/07/29 12:34:24;;;;;;;12.70;5.30;;;29.10;35.20;;;;;;5059929;28;20467;-76
2022/07/29 12:37:10;;;;;;;8.30;5.80;;;29.30;35.70;;;;;;5058752;28;20526;-76
2022/07/29 12:39:57;;;;;;;9.53;5.60;;;29.30;34.10;;;;;;5049175;28;20518;-76
2022/07/29 12:43:05;;;;;;;7.83;5.30;;;29.60;34.30;;;;;;5050426;28;20443;-76
2022/07/29 12:45:53;;;;;;;6.43;4.60;;;29.70;34.10;;;;;;5053841;28;20439;-76
2022/07/29 12:48:40;;;;;;;9.07;5.10;;;29.60;33.20;;;;;;5049356;28;20452;-76
2022/07/29 12:51:34;;;;;;;7.83;4.83;;;29.40;34.20;;;;;;5054443;28;20457;-76
2022/07/29 12:54:20;;;;;;;7.40;4.90;;;29.40;32.50;;;;;;5058288;28;20466;-76
2022/07/29 12:57:07;;;;;;;9.60;4.93;;;29.30;31.40;;;;;;5055845;28;20446;-76
2022/07/29 13:00:07;;;;;;;11.43;5.50;;;29.50;32.00;;;;;;5049092;28;20514;-76
2022/07/29 13:02:56;;;;;;;7.30;4.90;;;29.30;31.00;;;;;;5053875;28;20451;-76
2022/07/29 13:05:44;;;;;;;10.50;4.53;;;29.30;30.20;;;;;;5056215;28;20955;-76
2022/07/29 13:08:30;;;;;;;11.90;4.90;;;29.40;30.40;;;;;;5055135;28;20811;-76
2022/07/29 13:11:29;;;;;;;9.10;5.10;;;29.50;30.00;;;;;;5048565;28;20586;-76
2022/07/29 13:14:32;;;;;;;7.57;4.43;;;29.50;29.50;;;;;;5056949;28;20478;-76
2022/07/29 13:17:20;;;;;;;7.13;5.23;;;29.70;29.50;;;;;;5055524;28;21034;-76
2022/07/29 13:20:12;;;;;;;8.77;4.50;;;29.50;29.50;;;;;;5043200;28;20572;-76
2022/07/29 13:22:58;;;;;;;7.03;4.57;;;29.30;30.60;;;;;;5055553;28;20510;-76
2022/07/29 13:25:44;;;;;;;17.13;5.20;;;29.10;31.50;;;;;;5054271;28;20467;-76
2022/07/29 13:28:29;;;;;;;10.30;5.70;;;28.80;30.20;;;;;;5054018;28;20444;-76
2022/07/29 13:31:16;;;;;;;10.93;5.60;;;28.60;32.40;;;;;;5049852;28;20818;-76
2022/07/29 13:34:02;;;;;;;11.83;5.57;;;28.40;31.80;;;;;;5054649;28;20463;-76
2022/07/29 13:36:48;;;;;;;5.30;4.33;;;28.10;33.10;;;;;;5052508;28;20437;-76
2022/07/29 13:39:33;;;;;;;9.30;5.57;;;28.00;34.00;;;;;;5051109;28;20463;-76
2022/07/29 13:42:19;;;;;;;8.83;4.87;;;28.00;34.20;;;;;;5053221;28;20611;-76
2022/07/29 13:45:06;;;;;;;14.40;4.80;;;27.90;33.60;;;;;;5053934;28;20483;-76
2022/07/29 13:47:53;;;;;;;7.43;5.43;;;27.90;34.20;;;;;;5049459;28;20451;-75
2022/07/29 13:50:39;;;;;;;11.80;5.03;;;27.80;34.10;;;;;;5052894;28;20501;-76
2022/07/29 13:53:24;;;;;;;6.60;4.90;;;27.80;32.80;;;;;;5057181;28;20871;-76
2022/07/29 13:56:10;;;;;;;5.63;4.03;;;28.00;34.10;;;;;;5055838;28;20493;-76
2022/07/29 13:58:56;;;;;;;5.87;4.10;;;28.20;34.10;;;;;;5051349;28;20448;-76
2022/07/29 14:01:42;;;;;;;5.57;3.30;;;28.40;33.30;;;;;;5052123;28;20455;-75
2022/07/29 14:04:29;;;;;;;6.27;4.43;;;28.60;31.70;;;;;;5055089;28;20463;-75
2022/07/29 14:07:15;;;;;;;6.50;4.00;;;28.80;30.00;;;;;;5056097;28;20576;-75
2022/07/29 14:10:01;;;;;;;8.50;4.27;;;29.10;29.70;;;;;;5049895;28;20524;-75
2022/07/29 14:12:46;;;;;;;5.47;3.17;;;29.20;27.40;;;;;;5060031;28;20451;-75
2022/07/29 14:15:32;;;;;;;5.83;3.63;;;29.20;26.10;;;;;;5056440;28;20447;-75
2022/07/29 14:18:17;;;;;;;9.03;3.67;;;29.30;25.90;;;;;;5051621;28;20442;-75
2022/07/29 14:21:04;;;;;;;5.90;4.00;;;29.40;26.80;;;;;;5048247;28;20490;-76
2022/07/29 14:23:51;;;;;;;8.13;4.03;;;29.50;26.20;;;;;;5050280;28;20467;-75
2022/07/29 14:26:37;;;;;;;6.37;3.80;;;29.50;25.30;;;;;;5051678;28;20951;-75
2022/07/29 14:29:23;;;;;;;6.27;3.80;;;29.60;26.00;;;;;;5044927;28;20582;-75
2022/07/29 14:32:10;;;;;;;7.90;4.07;;;29.60;25.90;;;;;;5058305;28;20500;-75
2022/07/29 14:34:55;;;;;;;6.27;3.80;;;29.50;26.90;;;;;;5056149;28;20463;-75
2022/07/29 14:37:43;;;;;;;6.10;4.50;;;29.20;26.60;;;;;;5052157;28;20459;-75
2022/07/29 14:40:29;;;;;;;7.10;4.03;;;29.10;26.80;;;;;;5048956;28;20481;-75